createdAt,value
2022-10-22T00:01:03.637Z,95.90
2022-10-22T00:03:31.444Z,95.70
2022-10-22T00:05:59.358Z,95.70
2022-10-22T00:08:27.028Z,96.00
2022-10-22T00:10:54.601Z,95.80
2022-10-22T00:13:22.251Z,95.80
2022-10-22T00:15:49.819Z,95.80
2022-10-22T00:18:17.340Z,95.80
2022-10-22T00:20:45.619Z,96.20
2022-10-22T00:23:13.125Z,96.40
2022-10-22T00:25:40.594Z,95.60
2022-10-22T00:28:08.214Z,95.60
2022-10-22T00:30:38.507Z,95.50
2022-10-22T00:33:06.090Z,95.80
2022-10-22T00:35:34.593Z,95.80
2022-10-22T00:38:03.239Z,95.30
2022-10-22T00:40:31.053Z,95.90
2022-10-22T00:42:58.618Z,95.60
2022-10-22T00:45:29.170Z,95.50
2022-10-22T00:48:05.468Z,95.80
2022-10-22T00:50:39.468Z,95.70
2022-10-22T00:53:09.927Z,96.00
2022-10-22T00:55:39.169Z,96.70
2022-10-22T00:58:06.718Z,95.90
2022-10-22T01:00:34.961Z,95.70
2022-10-22T01:03:03.635Z,95.30
2022-10-22T01:05:33.752Z,96.50
2022-10-22T01:08:02.290Z,96.10
2022-10-22T01:10:52.620Z,96.20
2022-10-22T01:13:26.297Z,95.90
2022-10-22T01:16:00.039Z,96.00
2022-10-22T01:18:53.925Z,96.00
2022-10-22T01:21:24.722Z,95.60
2022-10-22T01:24:06.527Z,95.40
2022-10-22T01:26:34.905Z,95.30
2022-10-22T01:29:14.581Z,95.00
2022-10-22T01:31:45.697Z,94.10
2022-10-22T01:34:14.971Z,94.40
2022-10-22T01:36:44.572Z,94.00
2022-10-22T01:39:16.563Z,94.40
2022-10-22T01:41:48.152Z,94.40
2022-10-22T01:44:27.169Z,93.70
2022-10-22T01:47:05.470Z,94.00
2022-10-22T01:49:59.651Z,93.60
2022-10-22T01:52:46.229Z,93.40
2022-10-22T01:55:20.609Z,93.50
2022-10-22T01:58:02.230Z,93.50
2022-10-22T02:00:31.201Z,93.50
2022-10-22T02:02:58.760Z,93.40
2022-10-22T02:05:32.634Z,93.20
2022-10-22T02:08:20.934Z,92.90
2022-10-22T02:10:50.252Z,92.90
2022-10-22T02:13:26.068Z,92.70
2022-10-22T02:15:55.513Z,92.80
2022-10-22T02:18:24.261Z,92.50
2022-10-22T02:20:52.319Z,92.50
2022-10-22T02:23:21.141Z,92.50
2022-10-22T02:25:55.402Z,92.40
2022-10-22T02:28:52.795Z,92.10
2022-10-22T02:31:24.165Z,92.10
2022-10-22T02:33:53.956Z,91.70
2022-10-22T02:36:22.929Z,91.70
2022-10-22T02:38:53.163Z,91.60
2022-10-22T02:41:28.961Z,90.80
2022-10-22T02:43:57.410Z,91.00
2022-10-22T02:46:26.205Z,91.10
2022-10-22T02:48:53.824Z,91.30
2022-10-22T02:51:22.584Z,91.10
2022-10-22T02:53:53.447Z,91.20
2022-10-22T02:56:21.017Z,91.10
2022-10-22T02:58:51.838Z,91.20
2022-10-22T03:01:19.808Z,91.20
2022-10-22T03:03:49.448Z,91.10
2022-10-22T03:06:21.599Z,91.20
2022-10-22T03:08:50.741Z,91.20
2022-10-22T03:11:22.008Z,91.30
2022-10-22T03:13:52.919Z,91.40
2022-10-22T03:16:20.783Z,91.40
2022-10-22T03:18:50.652Z,91.30
2022-10-22T03:21:19.102Z,91.20
2022-10-22T03:23:47.100Z,91.30
2022-10-22T03:26:15.327Z,91.30
2022-10-22T03:28:43.960Z,91.40
2022-10-22T03:31:14.053Z,91.40
2022-10-22T03:33:42.319Z,91.40
2022-10-22T03:36:10.891Z,91.40
2022-10-22T03:38:40.386Z,91.40
2022-10-22T03:41:11.032Z,91.30
2022-10-22T03:43:40.992Z,91.20
2022-10-22T03:46:09.297Z,91.10
2022-10-22T03:48:39.455Z,91.00
2022-10-22T03:51:10.353Z,91.10
2022-10-22T03:53:41.355Z,91.00
2022-10-22T03:56:12.258Z,91.20
2022-10-22T03:58:43.757Z,91.20
2022-10-22T04:01:14.395Z,91.10
2022-10-22T04:03:42.244Z,91.00
2022-10-22T04:06:12.659Z,91.00
2022-10-22T04:08:41.705Z,90.80
2022-10-22T04:11:09.667Z,91.00
2022-10-22T04:13:37.603Z,90.60
2022-10-22T04:16:16.238Z,90.60
2022-10-22T04:18:44.328Z,90.70
2022-10-22T04:21:14.088Z,90.70
2022-10-22T04:23:46.290Z,90.70
2022-10-22T04:26:16.959Z,90.70
2022-10-22T04:28:46.119Z,90.60
2022-10-22T04:31:19.188Z,90.60
2022-10-22T04:33:48.928Z,90.10
2022-10-22T04:36:21.254Z,90.30
2022-10-22T04:39:00.424Z,89.30
2022-10-22T04:41:33.006Z,90.10
2022-10-22T04:46:51.261Z,90.10
2022-10-22T04:49:21.762Z,90.10
2022-10-22T04:51:50.130Z,90.10
2022-10-22T04:54:17.693Z,90.20
2022-10-22T04:56:49.941Z,90.20
2022-10-22T04:59:19.491Z,90.30
2022-10-22T05:01:50.657Z,90.30
2022-10-22T05:04:20.108Z,90.50
2022-10-22T05:09:34.586Z,90.70
2022-10-22T05:12:02.321Z,91.20
2022-10-22T05:14:30.036Z,91.00
2022-10-22T05:16:58.540Z,91.00
2022-10-22T05:19:31.286Z,91.10
2022-10-22T05:22:00.368Z,91.10
2022-10-22T05:24:28.362Z,91.20
2022-10-22T05:26:58.544Z,91.30
2022-10-22T05:29:26.840Z,91.40
2022-10-22T05:31:54.766Z,91.30
2022-10-22T05:34:22.693Z,91.30
2022-10-22T05:36:50.354Z,91.30
2022-10-22T05:39:19.888Z,91.30
2022-10-22T05:41:58.025Z,91.30
2022-10-22T05:44:26.480Z,91.30
2022-10-22T05:46:55.270Z,91.40
2022-10-22T05:49:26.782Z,91.30
2022-10-22T05:51:58.127Z,91.20
2022-10-22T05:54:30.112Z,91.20
2022-10-22T05:57:02.525Z,91.10
2022-10-22T05:59:32.705Z,91.10
2022-10-22T06:02:03.218Z,91.10
2022-10-22T06:04:36.613Z,91.00
2022-10-22T06:07:06.198Z,91.00
2022-10-22T06:12:17.114Z,90.90
2022-10-22T06:14:47.752Z,90.90
2022-10-22T06:17:17.373Z,90.90
2022-10-22T06:19:46.901Z,90.80
2022-10-22T06:22:20.043Z,90.70
2022-10-22T06:24:48.504Z,90.70
2022-10-22T06:27:17.968Z,90.60
2022-10-22T06:29:46.434Z,90.50
2022-10-22T06:32:31.644Z,90.50
2022-10-22T06:35:11.727Z,90.50
2022-10-22T06:37:46.114Z,90.50
2022-10-22T06:40:19.576Z,90.50
2022-10-22T06:42:59.028Z,90.30
2022-10-22T06:45:33.309Z,90.30
2022-10-22T06:48:02.618Z,90.30
2022-10-22T06:50:41.353Z,90.40
2022-10-22T06:53:10.229Z,90.40
2022-10-22T06:55:38.187Z,90.00
2022-10-22T06:58:07.515Z,89.00
2022-10-22T07:00:35.468Z,89.70
2022-10-22T07:03:04.648Z,90.00
2022-10-22T07:05:35.116Z,90.00
2022-10-22T07:08:08.323Z,89.70
2022-10-22T07:10:39.076Z,90.30
2022-10-22T07:13:13.794Z,89.60
2022-10-22T07:15:42.074Z,89.30
2022-10-22T07:18:12.031Z,89.50
2022-10-22T07:20:43.135Z,89.90
2022-10-22T07:23:14.231Z,89.90
2022-10-22T07:25:42.363Z,89.40
2022-10-22T07:28:11.772Z,89.60
2022-10-22T07:30:43.541Z,89.50
2022-10-22T07:33:13.405Z,89.80
2022-10-22T07:35:59.769Z,89.20
2022-10-22T07:38:29.384Z,88.90
2022-10-22T07:40:57.395Z,89.10
2022-10-22T07:43:25.477Z,89.50
2022-10-22T07:45:53.268Z,89.50
2022-10-22T07:48:21.864Z,88.60
2022-10-22T07:50:51.193Z,89.20
2022-10-22T07:53:28.644Z,89.30
2022-10-22T07:55:57.191Z,89.20
2022-10-22T07:58:30.051Z,88.10
2022-10-22T08:01:00.209Z,88.60
2022-10-22T08:03:32.518Z,88.40
2022-10-22T08:06:03.928Z,87.70
2022-10-22T08:08:33.236Z,87.90
2022-10-22T08:11:08.169Z,88.20
2022-10-22T08:13:45.071Z,88.10
2022-10-22T08:16:15.334Z,87.90
2022-10-22T08:18:44.549Z,88.20
2022-10-22T08:21:15.202Z,87.40
2022-10-22T08:23:46.310Z,88.10
2022-10-22T08:26:17.650Z,87.90
2022-10-22T08:28:47.903Z,85.40
2022-10-22T08:31:17.072Z,87.00
2022-10-22T08:33:46.113Z,86.50
2022-10-22T08:36:15.243Z,85.30
2022-10-22T08:38:44.580Z,85.50
2022-10-22T08:41:19.577Z,86.20
2022-10-22T08:43:57.303Z,84.90
2022-10-22T08:46:41.031Z,84.00
2022-10-22T08:49:15.392Z,84.90
2022-10-22T08:51:43.407Z,84.60
2022-10-22T08:54:14.727Z,86.40
2022-10-22T08:56:45.057Z,85.90
2022-10-22T08:59:22.635Z,86.00
2022-10-22T09:01:58.176Z,84.20
2022-10-22T09:04:31.767Z,85.10
2022-10-22T09:07:00.986Z,85.20
2022-10-22T09:09:35.342Z,86.00
2022-10-22T09:12:07.598Z,86.30
2022-10-22T09:14:35.701Z,86.10
2022-10-22T09:17:04.156Z,85.30
2022-10-22T09:19:40.916Z,85.60
2022-10-22T09:22:18.658Z,85.50
2022-10-22T09:24:50.573Z,86.70
2022-10-22T09:27:19.951Z,85.00
2022-10-22T09:29:48.323Z,85.40
2022-10-22T09:32:16.758Z,86.00
2022-10-22T09:34:45.718Z,86.70
2022-10-22T09:37:13.371Z,86.10
2022-10-22T09:39:41.889Z,86.00
2022-10-22T09:42:17.163Z,86.20
2022-10-22T09:44:47.757Z,86.00
2022-10-22T09:47:43.437Z,85.30
2022-10-22T09:50:49.542Z,86.20
2022-10-22T09:53:30.536Z,85.70
2022-10-22T09:56:02.436Z,86.30
2022-10-22T09:58:30.313Z,86.00
2022-10-22T10:00:59.048Z,86.50
2022-10-22T10:03:32.717Z,86.60
2022-10-22T10:06:05.035Z,86.80
2022-10-22T10:08:34.222Z,86.80
2022-10-22T10:11:17.132Z,86.70
2022-10-22T10:13:51.143Z,86.90
2022-10-22T10:16:34.720Z,87.20
2022-10-22T10:19:15.846Z,87.30
2022-10-22T10:21:52.514Z,86.90
2022-10-22T10:24:32.589Z,87.20
2022-10-22T10:27:08.938Z,87.40
2022-10-22T10:29:54.208Z,87.40
2022-10-22T10:32:25.624Z,87.30
2022-10-22T10:35:09.128Z,87.20
2022-10-22T10:37:47.757Z,87.10
2022-10-22T10:40:28.807Z,87.40
2022-10-22T10:42:56.628Z,87.50
2022-10-22T10:45:30.054Z,87.60
2022-10-22T10:48:16.649Z,87.60
2022-10-22T10:50:51.927Z,87.50
2022-10-22T10:53:36.986Z,87.70
2022-10-22T10:56:21.707Z,87.70
2022-10-22T10:58:55.474Z,87.80
2022-10-22T11:01:46.852Z,87.80
2022-10-22T11:04:32.673Z,87.90
2022-10-22T11:07:11.459Z,87.90
2022-10-22T11:10:02.985Z,88.00
2022-10-22T11:12:33.369Z,88.00
2022-10-22T11:15:10.731Z,88.10
2022-10-22T11:17:44.103Z,88.10
2022-10-22T11:20:21.232Z,88.20
2022-10-22T11:23:17.413Z,88.30
2022-10-22T11:25:44.813Z,88.30
2022-10-22T11:28:12.709Z,88.40
2022-10-22T11:30:43.050Z,88.50
2022-10-22T11:33:19.173Z,88.60
2022-10-22T11:35:48.563Z,88.60
2022-10-22T11:38:18.216Z,88.70
2022-10-22T11:40:48.021Z,88.80
2022-10-22T11:43:36.202Z,88.90
2022-10-22T11:46:10.392Z,89.00
2022-10-22T11:48:38.566Z,89.10
2022-10-22T11:51:26.204Z,89.20
2022-10-22T11:53:58.243Z,89.40
2022-10-22T11:56:26.811Z,89.50
2022-10-22T11:58:55.645Z,89.40
2022-10-22T12:01:31.458Z,90.10
2022-10-22T12:03:59.780Z,89.70
2022-10-22T12:06:29.466Z,89.70
2022-10-22T12:08:59.359Z,89.70
2022-10-22T12:11:30.734Z,89.60
2022-10-22T12:14:05.175Z,89.60
2022-10-22T12:16:57.352Z,89.50
2022-10-22T12:19:31.625Z,89.50
2022-10-22T12:22:02.788Z,89.50
2022-10-22T12:24:33.855Z,89.50
2022-10-22T12:27:01.680Z,89.50
2022-10-22T12:29:31.731Z,89.50
2022-10-22T12:32:03.089Z,89.60
2022-10-22T12:34:31.651Z,89.50
2022-10-22T12:36:59.151Z,89.30
2022-10-22T12:39:27.843Z,89.30
2022-10-22T12:41:56.290Z,89.30
2022-10-22T12:44:23.912Z,89.20
2022-10-22T12:46:56.013Z,89.10
2022-10-22T12:49:34.888Z,89.10
2022-10-22T12:52:10.818Z,89.10
2022-10-22T12:54:42.003Z,89.20
2022-10-22T12:57:17.830Z,89.30
2022-10-22T12:59:49.618Z,89.30
2022-10-22T13:02:18.483Z,89.30
2022-10-22T13:05:05.789Z,89.30
2022-10-22T13:07:42.694Z,89.30
2022-10-22T13:10:39.530Z,89.30
2022-10-22T13:13:07.350Z,89.40
2022-10-22T13:15:39.661Z,89.50
2022-10-22T13:18:08.068Z,89.60
2022-10-22T13:20:37.683Z,89.90
2022-10-22T13:23:06.237Z,89.90
2022-10-22T13:25:35.148Z,89.90
2022-10-22T13:28:12.159Z,90.00
2022-10-22T13:30:40.363Z,90.00
2022-10-22T13:33:21.512Z,90.10
2022-10-22T13:35:50.507Z,90.20
2022-10-22T13:38:22.507Z,90.30
2022-10-22T13:40:51.095Z,90.30
2022-10-22T13:43:22.797Z,90.40
2022-10-22T13:45:53.435Z,90.40
2022-10-22T13:48:22.279Z,90.40
2022-10-22T13:50:51.017Z,90.40
2022-10-22T13:53:20.760Z,90.50
2022-10-22T13:55:49.600Z,90.50
2022-10-22T13:58:18.842Z,90.50
2022-10-22T14:00:47.574Z,90.50
2022-10-22T14:03:17.389Z,90.50
2022-10-22T14:05:51.235Z,90.60
2022-10-22T14:08:22.743Z,90.60
2022-10-22T14:10:51.369Z,90.70
2022-10-22T14:13:22.348Z,90.70
2022-10-22T14:15:50.933Z,90.70
2022-10-22T14:18:25.791Z,90.70
2022-10-22T14:20:55.914Z,90.70
2022-10-22T14:23:25.894Z,90.90
2022-10-22T14:25:54.615Z,90.80
2022-10-22T14:28:23.126Z,90.80
2022-10-22T14:30:50.802Z,90.70
2022-10-22T14:33:19.148Z,90.80
2022-10-22T14:35:48.781Z,90.80
2022-10-22T14:38:16.718Z,90.80
2022-10-22T14:40:45.801Z,90.80
2022-10-22T14:43:24.297Z,90.80
2022-10-22T14:45:52.171Z,90.80
2022-10-22T14:50:52.239Z,90.90
2022-10-22T14:53:19.852Z,90.90
2022-10-22T14:55:49.299Z,91.00
2022-10-22T14:58:17.877Z,91.00
2022-10-22T15:00:45.434Z,91.30
2022-10-22T15:03:14.501Z,91.20
2022-10-22T15:05:45.474Z,91.10
2022-10-22T15:08:14.263Z,91.10
2022-10-22T15:10:42.731Z,91.20
2022-10-22T15:13:21.649Z,91.30
2022-10-22T15:15:49.956Z,91.20
2022-10-22T15:18:18.425Z,91.30
2022-10-22T15:20:45.900Z,91.30
2022-10-22T15:23:14.217Z,91.40
2022-10-22T15:25:45.080Z,91.50
2022-10-22T15:28:12.609Z,91.30
2022-10-22T15:30:40.090Z,91.40
2022-10-22T15:33:08.570Z,91.30
2022-10-22T15:35:37.284Z,91.50
2022-10-22T15:38:07.492Z,91.50
2022-10-22T15:40:38.530Z,91.60
2022-10-22T15:43:06.093Z,91.70
2022-10-22T15:45:33.613Z,91.60
2022-10-22T15:48:01.419Z,91.70
2022-10-22T15:50:29.002Z,91.70
2022-10-22T15:52:57.747Z,91.70
2022-10-22T15:55:26.080Z,91.90
2022-10-22T15:57:58.035Z,91.90
2022-10-22T16:00:28.868Z,91.90
2022-10-22T16:02:56.682Z,91.80
2022-10-22T16:05:24.400Z,91.90
2022-10-22T16:07:55.904Z,92.00
2022-10-22T16:10:24.745Z,92.00
2022-10-22T16:12:57.958Z,92.20
2022-10-22T16:15:25.501Z,92.10
2022-10-22T16:17:52.986Z,92.20
2022-10-22T16:20:20.453Z,92.10
2022-10-22T16:22:49.842Z,92.40
2022-10-22T16:25:17.456Z,92.20
2022-10-22T16:27:45.014Z,92.30
2022-10-22T16:30:12.826Z,93.00
2022-10-22T16:32:41.342Z,92.60
2022-10-22T16:35:10.061Z,92.70
2022-10-22T16:37:37.566Z,92.60
2022-10-22T16:40:08.352Z,92.90
2022-10-22T16:42:36.846Z,93.40
2022-10-22T16:45:04.579Z,93.00
2022-10-22T16:47:32.948Z,92.90
2022-10-22T16:50:01.984Z,93.00
2022-10-22T16:52:29.470Z,93.00
2022-10-22T16:54:58.416Z,93.00
2022-10-22T16:57:26.685Z,92.70
2022-10-22T16:59:55.541Z,92.40
2022-10-22T17:02:23.185Z,92.40
2022-10-22T17:04:51.458Z,92.40
2022-10-22T17:07:19.827Z,92.30
2022-10-22T17:09:47.383Z,92.30
2022-10-22T17:12:15.749Z,92.00
2022-10-22T17:14:44.147Z,92.00
2022-10-22T17:17:13.123Z,91.90
2022-10-22T17:19:40.629Z,91.90
2022-10-22T17:22:08.223Z,91.90
2022-10-22T17:24:36.780Z,92.00
2022-10-22T17:29:38.088Z,91.90
2022-10-22T17:32:05.764Z,91.90
2022-10-22T17:34:33.666Z,91.90
2022-10-22T17:37:01.957Z,91.90
2022-10-22T17:39:30.292Z,91.80
2022-10-22T17:41:58.646Z,91.90
2022-10-22T17:44:27.325Z,91.90
2022-10-22T17:46:54.865Z,91.90
2022-10-22T17:49:22.364Z,91.90
2022-10-22T17:51:50.742Z,91.70
2022-10-22T17:54:19.202Z,91.70
2022-10-22T17:56:47.391Z,91.70
2022-10-22T17:59:16.489Z,91.70
2022-10-22T18:01:46.017Z,91.70
2022-10-22T18:04:20.770Z,91.70
2022-10-22T18:06:49.526Z,91.70
2022-10-22T18:09:19.204Z,91.80
2022-10-22T18:11:47.642Z,91.90
2022-10-22T18:14:16.087Z,91.90
2022-10-22T18:16:44.374Z,91.90
2022-10-22T18:19:12.726Z,92.00
2022-10-22T18:21:40.990Z,91.80
2022-10-22T18:24:09.544Z,91.80
2022-10-22T18:26:38.209Z,91.80
2022-10-22T18:29:06.839Z,91.80
2022-10-22T18:31:34.394Z,91.90
2022-10-22T18:34:02.859Z,91.90
2022-10-22T18:36:31.121Z,91.80
2022-10-22T18:39:01.017Z,91.70
2022-10-22T18:41:29.571Z,91.70
2022-10-22T18:43:58.047Z,91.70
2022-10-22T18:46:27.016Z,91.60
2022-10-22T18:48:58.084Z,91.50
2022-10-22T18:51:27.685Z,91.60
2022-10-22T18:54:05.217Z,91.80
2022-10-22T18:56:43.887Z,92.10
2022-10-22T18:59:17.201Z,92.00
2022-10-22T19:01:44.799Z,92.00
2022-10-22T19:04:13.484Z,92.00
2022-10-22T19:06:45.071Z,92.20
2022-10-22T19:09:14.169Z,92.20
2022-10-22T19:11:41.783Z,92.10
2022-10-22T19:14:09.474Z,92.00
2022-10-22T19:16:38.630Z,92.00
2022-10-22T19:19:07.836Z,92.10
2022-10-22T19:21:35.790Z,92.00
2022-10-22T19:24:04.371Z,92.50
2022-10-22T19:26:32.271Z,92.20
2022-10-22T19:29:00.826Z,92.00
2022-10-22T19:31:30.245Z,92.20
2022-10-22T19:33:58.249Z,92.40
2022-10-22T19:36:27.815Z,92.40
2022-10-22T19:38:56.361Z,92.50
2022-10-22T19:41:24.822Z,92.60
2022-10-22T19:43:53.252Z,92.50
2022-10-22T19:46:21.185Z,92.70
2022-10-22T19:48:49.978Z,92.80
2022-10-22T19:51:19.987Z,92.70
2022-10-22T19:53:48.775Z,93.40
2022-10-22T19:56:21.505Z,93.20
2022-10-22T19:58:48.986Z,93.10
2022-10-22T20:01:18.172Z,93.10
2022-10-22T20:03:46.097Z,93.40
2022-10-22T20:06:15.659Z,93.10
2022-10-22T20:08:44.208Z,92.80
2022-10-22T20:11:15.948Z,92.80
2022-10-22T20:13:45.474Z,93.00
2022-10-22T20:16:16.983Z,93.10
2022-10-22T20:18:45.231Z,93.30
2022-10-22T20:21:14.195Z,93.40
2022-10-22T20:23:42.170Z,93.30
2022-10-22T20:26:11.064Z,93.00
2022-10-22T20:28:38.866Z,93.70
2022-10-22T20:31:12.910Z,93.40
2022-10-22T20:33:41.255Z,93.70
2022-10-22T20:36:11.823Z,93.60
2022-10-22T20:38:40.266Z,93.40
2022-10-22T20:41:10.380Z,93.40
2022-10-22T20:43:38.771Z,93.40
2022-10-22T20:46:06.367Z,93.70
2022-10-22T20:48:34.768Z,93.90
2022-10-22T20:51:03.100Z,93.80
2022-10-22T20:53:30.709Z,93.70
2022-10-22T20:55:59.354Z,93.70
2022-10-22T20:58:27.733Z,93.60
2022-10-22T21:00:55.678Z,93.60
2022-10-22T21:03:23.892Z,93.50
2022-10-22T21:05:51.550Z,93.40
2022-10-22T21:08:19.053Z,93.50
2022-10-22T21:10:49.229Z,93.50
2022-10-22T21:13:20.225Z,93.40
2022-10-22T21:15:47.762Z,93.50
2022-10-22T21:18:16.156Z,93.40
2022-10-22T21:20:44.033Z,93.50
2022-10-22T21:23:12.530Z,93.60
2022-10-22T21:25:43.243Z,93.60
2022-10-22T21:28:11.571Z,93.50
2022-10-22T21:30:44.616Z,93.50
2022-10-22T21:33:12.113Z,93.40
2022-10-22T21:35:39.883Z,93.40
2022-10-22T21:38:08.516Z,93.50
2022-10-22T21:40:39.053Z,93.50
2022-10-22T21:43:07.359Z,93.70
2022-10-22T21:48:03.009Z,93.70
2022-10-22T21:50:30.650Z,93.60
2022-10-22T21:52:58.601Z,93.70
2022-10-22T21:55:26.237Z,93.90
2022-10-22T21:57:53.742Z,93.80
2022-10-22T22:00:22.070Z,93.90
2022-10-22T22:02:50.411Z,94.00
2022-10-22T22:05:18.042Z,94.20
2022-10-22T22:07:45.824Z,94.00
2022-10-22T22:10:14.135Z,93.90
2022-10-22T22:12:42.002Z,93.90
2022-10-22T22:15:10.691Z,93.80
2022-10-22T22:17:39.014Z,93.80
2022-10-22T22:20:07.661Z,94.20
2022-10-22T22:22:35.555Z,93.90
2022-10-22T22:25:03.115Z,93.90
2022-10-22T22:27:31.553Z,94.00
2022-10-22T22:29:59.842Z,94.20
2022-10-22T22:32:28.179Z,94.40
2022-10-22T22:34:56.508Z,94.20
2022-10-22T22:37:24.769Z,94.30
2022-10-22T22:39:52.318Z,94.00
2022-10-22T22:42:19.888Z,93.90
2022-10-22T22:44:47.442Z,94.00
2022-10-22T22:47:14.946Z,94.20
2022-10-22T22:49:42.609Z,94.00
2022-10-22T22:52:11.136Z,93.80
2022-10-22T22:54:38.722Z,94.00
2022-10-22T22:57:06.294Z,94.30
2022-10-22T22:59:34.121Z,94.70
2022-10-22T23:02:01.696Z,94.60
2022-10-22T23:04:30.453Z,94.60
2022-10-22T23:06:58.850Z,94.30
2022-10-22T23:09:26.396Z,94.10
2022-10-22T23:11:54.284Z,94.30
2022-10-22T23:14:22.644Z,94.50
2022-10-22T23:16:51.812Z,94.40
2022-10-22T23:19:21.103Z,94.40
2022-10-22T23:21:50.115Z,93.90
2022-10-22T23:24:19.365Z,93.80
2022-10-22T23:26:48.205Z,93.90
2022-10-22T23:29:18.573Z,93.70
2022-10-22T23:31:46.990Z,93.50
2022-10-22T23:34:16.074Z,93.30
2022-10-22T23:36:44.494Z,93.40
2022-10-22T23:39:15.206Z,93.30
2022-10-22T23:41:43.094Z,93.20
2022-10-22T23:44:11.219Z,93.70
2022-10-22T23:46:39.197Z,93.70
2022-10-22T23:49:08.298Z,93.60
2022-10-22T23:51:35.851Z,93.50
2022-10-22T23:54:04.908Z,93.40
2022-10-22T23:56:32.732Z,93.10
2022-10-22T23:59:00.333Z,93.10
